createdAt,value
2018-05-31T00:00:47.035Z,1014.95
2018-05-31T00:01:47.092Z,1014.91
2018-05-31T00:02:47.058Z,1015.00
2018-05-31T00:03:47.050Z,1015.00
2018-05-31T00:04:47.077Z,1015.03
2018-05-31T00:05:47.181Z,1015.05
2018-05-31T00:06:47.029Z,1015.05
2018-05-31T00:07:47.047Z,1015.05
2018-05-31T00:08:46.997Z,1015.07
2018-05-31T00:09:47.008Z,1015.10
2018-05-31T00:10:47.832Z,1015.08
2018-05-31T00:11:47.004Z,1015.12
2018-05-31T00:12:47.039Z,1015.13
2018-05-31T00:13:47.009Z,1015.10
2018-05-31T00:14:46.908Z,1015.15
2018-05-31T00:15:46.929Z,1015.05
2018-05-31T00:16:47.007Z,1015.13
2018-05-31T00:17:46.908Z,1015.13
2018-05-31T00:18:46.869Z,1015.14
2018-05-31T00:19:46.968Z,1015.11
2018-05-31T00:20:46.971Z,1015.17
2018-05-31T00:21:46.927Z,1015.12
2018-05-31T00:22:47.869Z,1015.14
2018-05-31T00:23:46.920Z,1015.19
2018-05-31T00:24:46.953Z,1015.18
2018-05-31T00:25:46.854Z,1015.18
2018-05-31T00:26:46.859Z,1015.18
2018-05-31T00:27:46.856Z,1015.22
2018-05-31T00:28:46.944Z,1015.20
2018-05-31T00:29:46.850Z,1015.23
2018-05-31T00:30:46.814Z,1015.23
2018-05-31T00:31:46.920Z,1015.24
2018-05-31T00:32:46.828Z,1015.28
2018-05-31T00:33:46.815Z,1015.26
2018-05-31T00:34:46.765Z,1015.27
2018-05-31T00:35:46.765Z,1015.23
2018-05-31T00:36:46.844Z,1015.25
2018-05-31T00:37:46.700Z,1015.28
2018-05-31T00:38:46.767Z,1015.25
2018-05-31T00:39:46.717Z,1015.31
2018-05-31T00:40:47.399Z,1015.35
2018-05-31T00:41:46.798Z,1015.34
2018-05-31T00:42:46.721Z,1015.33
2018-05-31T00:43:46.660Z,1015.36
2018-05-31T00:44:46.689Z,1015.37
2018-05-31T00:45:46.759Z,1015.35
2018-05-31T00:46:46.766Z,1015.34
2018-05-31T00:47:46.734Z,1015.38
2018-05-31T00:48:46.646Z,1015.40
2018-05-31T00:49:46.720Z,1015.43
2018-05-31T00:50:46.655Z,1015.45
2018-05-31T00:51:46.771Z,1015.44
2018-05-31T00:52:46.633Z,1015.46
2018-05-31T00:53:46.672Z,1015.44
2018-05-31T00:54:46.669Z,1015.43
2018-05-31T00:55:46.779Z,1015.47
2018-05-31T00:56:46.576Z,1015.51
2018-05-31T00:57:46.542Z,1015.56
2018-05-31T00:58:46.642Z,1015.57
2018-05-31T00:59:46.542Z,1015.57
2018-05-31T01:00:46.566Z,1015.60
2018-05-31T01:01:46.631Z,1015.61
2018-05-31T01:02:46.692Z,1015.62
2018-05-31T01:03:46.536Z,1015.59
2018-05-31T01:04:46.560Z,1015.58
2018-05-31T01:05:46.565Z,1015.59
2018-05-31T01:06:46.526Z,1015.61
2018-05-31T01:07:47.327Z,1015.63
2018-05-31T01:08:46.490Z,1015.66
2018-05-31T01:09:46.459Z,1015.63
2018-05-31T01:10:46.483Z,1015.63
2018-05-31T01:11:46.507Z,1015.63
2018-05-31T01:12:46.509Z,1015.67
2018-05-31T01:13:46.538Z,1015.61
2018-05-31T01:14:46.385Z,1015.69
2018-05-31T01:15:46.429Z,1015.77
2018-05-31T01:16:46.416Z,1015.64
2018-05-31T01:17:46.371Z,1015.63
2018-05-31T01:18:46.471Z,1015.69
2018-05-31T01:19:46.463Z,1015.69
2018-05-31T01:20:53.780Z,1015.72
2018-05-31T01:21:46.376Z,1015.73
2018-05-31T01:22:46.399Z,1015.70
2018-05-31T01:23:46.294Z,1015.68
2018-05-31T01:24:46.261Z,1015.72
2018-05-31T01:25:46.311Z,1015.72
2018-05-31T01:26:46.250Z,1015.73
2018-05-31T01:27:46.358Z,1015.73
2018-05-31T01:28:46.292Z,1015.72
2018-05-31T01:29:46.822Z,1015.74
2018-05-31T01:30:46.277Z,1015.74
2018-05-31T01:31:46.223Z,1015.77
2018-05-31T01:32:46.275Z,1015.79
2018-05-31T01:33:46.225Z,1015.78
2018-05-31T01:34:46.199Z,1015.81
2018-05-31T01:35:46.181Z,1015.84
2018-05-31T01:36:46.205Z,1015.82
2018-05-31T01:37:46.146Z,1015.82
2018-05-31T01:38:46.927Z,1015.84
2018-05-31T01:39:46.183Z,1015.81
2018-05-31T01:40:46.173Z,1015.84
2018-05-31T01:41:46.147Z,1015.83
2018-05-31T01:42:46.174Z,1015.83
2018-05-31T01:43:46.135Z,1015.83
2018-05-31T01:44:46.167Z,1015.83
2018-05-31T01:45:46.105Z,1015.82
2018-05-31T01:46:46.167Z,1015.82
2018-05-31T01:47:46.092Z,1015.82
2018-05-31T01:48:46.085Z,1015.88
2018-05-31T01:49:46.095Z,1015.88
2018-05-31T01:50:46.030Z,1015.87
2018-05-31T01:51:46.074Z,1015.81
2018-05-31T01:52:46.028Z,1015.87
2018-05-31T01:53:46.057Z,1015.86
2018-05-31T01:54:46.084Z,1015.86
2018-05-31T01:55:46.071Z,1015.91
2018-05-31T01:56:45.973Z,1015.86
2018-05-31T01:57:46.993Z,1015.90
2018-05-31T01:58:45.981Z,1015.90
2018-05-31T01:59:45.967Z,1015.93
2018-05-31T02:00:46.033Z,1015.94
2018-05-31T02:01:45.949Z,1015.91
2018-05-31T02:02:46.049Z,1015.89
2018-05-31T02:03:45.994Z,1015.97
2018-05-31T02:04:45.987Z,1015.96
2018-05-31T02:05:45.953Z,1015.97
2018-05-31T02:06:45.867Z,1016.02
2018-05-31T02:07:45.889Z,1016.04
2018-05-31T02:08:46.907Z,1016.07
2018-05-31T02:09:45.982Z,1016.02
2018-05-31T02:10:45.871Z,1016.07
2018-05-31T02:11:48.923Z,1016.07
2018-05-31T02:12:46.058Z,1016.11
2018-05-31T02:13:45.857Z,1016.07
2018-05-31T02:14:45.903Z,1016.14
2018-05-31T02:15:45.856Z,1016.13
2018-05-31T02:16:45.804Z,1016.13
2018-05-31T02:17:45.829Z,1016.13
2018-05-31T02:18:45.906Z,1016.11
2018-05-31T02:19:45.813Z,1016.15
2018-05-31T02:20:45.804Z,1016.19
2018-05-31T02:21:45.777Z,1016.20
2018-05-31T02:22:45.740Z,1016.18
2018-05-31T02:23:45.776Z,1016.25
2018-05-31T02:24:45.771Z,1016.23
2018-05-31T02:25:45.862Z,1016.22
2018-05-31T02:26:45.834Z,1016.19
2018-05-31T02:27:45.732Z,1016.20
2018-05-31T02:28:45.833Z,1016.24
2018-05-31T02:29:45.766Z,1016.27
2018-05-31T02:30:45.705Z,1016.29
2018-05-31T02:31:45.692Z,1016.32
2018-05-31T02:32:45.830Z,1016.33
2018-05-31T02:33:45.660Z,1016.33
2018-05-31T02:34:46.447Z,1016.37
2018-05-31T02:35:45.668Z,1016.43
2018-05-31T02:36:45.648Z,1016.42
2018-05-31T02:37:45.684Z,1016.47
2018-05-31T02:38:45.654Z,1016.49
2018-05-31T02:39:45.651Z,1016.54
2018-05-31T02:40:45.694Z,1016.50
2018-05-31T02:41:45.682Z,1016.56
2018-05-31T02:42:45.645Z,1016.52
2018-05-31T02:43:45.577Z,1016.55
2018-05-31T02:44:45.594Z,1016.53
2018-05-31T02:45:45.542Z,1016.60
2018-05-31T02:46:45.611Z,1016.56
2018-05-31T02:47:45.571Z,1016.57
2018-05-31T02:48:45.543Z,1016.58
2018-05-31T02:49:45.503Z,1016.59
2018-05-31T02:50:45.574Z,1016.60
2018-05-31T02:51:45.532Z,1016.64
2018-05-31T02:52:45.562Z,1016.64
2018-05-31T02:53:45.725Z,1016.59
2018-05-31T02:54:45.517Z,1016.62
2018-05-31T02:55:45.517Z,1016.68
2018-05-31T02:56:45.423Z,1016.70
2018-05-31T02:57:45.517Z,1016.68
2018-05-31T02:58:45.411Z,1016.69
2018-05-31T02:59:45.543Z,1016.74
2018-05-31T03:00:46.484Z,1016.72
2018-05-31T03:01:45.420Z,1016.72
2018-05-31T03:02:45.420Z,1016.79
2018-05-31T03:03:45.460Z,1016.77
2018-05-31T03:04:45.381Z,1016.80
2018-05-31T03:05:45.438Z,1016.79
2018-05-31T03:06:45.384Z,1016.76
2018-05-31T03:07:45.391Z,1016.74
2018-05-31T03:08:46.877Z,1016.76
2018-05-31T03:09:45.382Z,1016.74
2018-05-31T03:10:52.901Z,1016.79
2018-05-31T03:12:38.399Z,1016.81
2018-05-31T03:13:38.256Z,1016.82
2018-05-31T03:15:31.546Z,1016.82
2018-05-31T03:16:31.610Z,1016.78
2018-05-31T03:18:25.485Z,1016.80
2018-05-31T03:19:24.877Z,1016.82
2018-05-31T03:20:24.902Z,1016.84
2018-05-31T03:21:24.905Z,1016.85
2018-05-31T03:22:24.896Z,1016.88
2018-05-31T03:23:24.810Z,1016.86
2018-05-31T03:24:24.831Z,1016.86
2018-05-31T03:25:24.807Z,1016.89
2018-05-31T03:26:24.896Z,1016.86
2018-05-31T03:27:25.358Z,1016.89
2018-05-31T03:28:24.844Z,1016.93
2018-05-31T03:29:24.948Z,1016.87
2018-05-31T03:30:24.986Z,1016.84
2018-05-31T03:31:24.818Z,1016.88
2018-05-31T03:32:24.785Z,1016.89
2018-05-31T03:33:24.976Z,1016.90
2018-05-31T03:34:24.820Z,1016.90
2018-05-31T03:35:24.966Z,1016.91
2018-05-31T03:36:24.734Z,1016.95
2018-05-31T03:37:24.779Z,1016.93
2018-05-31T03:38:25.714Z,1016.94
2018-05-31T03:39:24.852Z,1016.93
2018-05-31T03:40:24.978Z,1016.94
2018-05-31T03:41:25.663Z,1016.95
2018-05-31T03:42:24.646Z,1016.98
2018-05-31T03:43:24.854Z,1017.05
2018-05-31T03:44:24.802Z,1017.00
2018-05-31T03:45:24.668Z,1016.98
2018-05-31T03:46:25.525Z,1016.99
2018-05-31T03:47:24.655Z,1017.02
2018-05-31T03:48:24.671Z,1017.03
2018-05-31T03:49:24.705Z,1017.01
2018-05-31T03:50:24.661Z,1017.01
2018-05-31T03:51:24.632Z,1017.04
2018-05-31T03:52:24.818Z,1017.07
2018-05-31T03:53:24.594Z,1017.10
2018-05-31T03:54:24.641Z,1017.10
2018-05-31T03:55:24.580Z,1017.12
2018-05-31T03:56:24.652Z,1017.14
2018-05-31T03:57:24.816Z,1017.13
2018-05-31T03:58:24.589Z,1017.14
2018-05-31T03:59:24.613Z,1017.12
2018-05-31T04:00:24.532Z,1017.15
2018-05-31T04:01:24.845Z,1017.19
2018-05-31T04:02:24.527Z,1017.17
2018-05-31T04:03:24.541Z,1017.15
2018-05-31T04:04:24.492Z,1017.20
2018-05-31T04:05:24.538Z,1017.19
2018-05-31T04:06:24.508Z,1017.17
2018-05-31T04:07:24.436Z,1017.22
2018-05-31T04:08:24.446Z,1017.23
2018-05-31T04:09:24.461Z,1017.19
2018-05-31T04:10:24.409Z,1017.28
2018-05-31T04:11:24.433Z,1017.26
2018-05-31T04:12:26.160Z,1017.29
2018-05-31T04:13:24.463Z,1017.26
2018-05-31T04:14:24.453Z,1017.25
2018-05-31T04:15:24.385Z,1017.25
2018-05-31T04:16:25.012Z,1017.23
2018-05-31T04:17:24.377Z,1017.26
2018-05-31T04:18:27.014Z,1017.23
2018-05-31T04:19:24.562Z,1017.25
2018-05-31T04:20:24.391Z,1017.26
2018-05-31T04:21:24.378Z,1017.26
2018-05-31T04:22:24.354Z,1017.29
2018-05-31T04:23:24.336Z,1017.32
2018-05-31T04:24:25.087Z,1017.37
2018-05-31T04:25:24.503Z,1017.34
2018-05-31T04:26:24.301Z,1017.34
2018-05-31T04:27:24.405Z,1017.37
2018-05-31T04:28:24.369Z,1017.35
2018-05-31T04:29:24.498Z,1017.37
2018-05-31T04:30:24.304Z,1017.37
2018-05-31T04:31:24.271Z,1017.38
2018-05-31T04:32:24.273Z,1017.36
2018-05-31T04:33:24.254Z,1017.37
2018-05-31T04:34:24.326Z,1017.39
2018-05-31T04:35:24.298Z,1017.47
2018-05-31T04:36:24.350Z,1017.46
2018-05-31T04:37:24.365Z,1017.49
2018-05-31T04:38:24.333Z,1017.49
2018-05-31T04:39:24.230Z,1017.48
2018-05-31T04:40:24.310Z,1017.48
2018-05-31T04:41:24.233Z,1017.52
2018-05-31T04:42:24.354Z,1017.51
2018-05-31T04:43:25.061Z,1017.50
2018-05-31T04:44:24.215Z,1017.54
2018-05-31T04:45:25.363Z,1017.46
2018-05-31T04:46:24.254Z,1017.51
2018-05-31T04:47:24.273Z,1017.51
2018-05-31T04:48:24.293Z,1017.55
2018-05-31T04:49:24.294Z,1017.60
2018-05-31T04:50:24.126Z,1017.56
2018-05-31T04:51:24.123Z,1017.56
2018-05-31T04:52:24.289Z,1017.52
2018-05-31T04:53:24.103Z,1017.53
2018-05-31T04:54:24.097Z,1017.54
2018-05-31T04:55:24.466Z,1017.55
2018-05-31T04:56:24.401Z,1017.53
2018-05-31T04:57:24.100Z,1017.56
2018-05-31T04:58:24.327Z,1017.56
2018-05-31T04:59:24.090Z,1017.63
2018-05-31T05:00:24.250Z,1017.61
2018-05-31T05:01:24.022Z,1017.58
2018-05-31T05:02:24.002Z,1017.62
2018-05-31T05:03:24.083Z,1017.64
2018-05-31T05:04:24.019Z,1017.64
2018-05-31T05:05:24.121Z,1017.64
2018-05-31T05:06:24.025Z,1017.61
2018-05-31T05:07:24.041Z,1017.61
2018-05-31T05:08:24.061Z,1017.66
2018-05-31T05:09:24.010Z,1017.65
2018-05-31T05:10:23.953Z,1017.67
2018-05-31T05:11:23.941Z,1017.69
2018-05-31T05:12:24.048Z,1017.68
2018-05-31T05:13:24.001Z,1017.66
2018-05-31T05:14:24.004Z,1017.67
2018-05-31T05:15:23.987Z,1017.70
2018-05-31T05:16:24.092Z,1017.68
2018-05-31T05:17:23.873Z,1017.70
2018-05-31T05:18:25.080Z,1017.75
2018-05-31T05:19:23.905Z,1017.68
2018-05-31T05:20:23.869Z,1017.77
2018-05-31T05:21:23.964Z,1017.77
2018-05-31T05:22:23.864Z,1017.78
2018-05-31T05:23:24.032Z,1017.76
2018-05-31T05:24:23.922Z,1017.78
2018-05-31T05:25:23.825Z,1017.78
2018-05-31T05:26:24.066Z,1017.75
2018-05-31T05:27:23.878Z,1017.78
2018-05-31T05:28:23.824Z,1017.76
2018-05-31T05:29:23.928Z,1017.78
2018-05-31T05:30:23.987Z,1017.80
2018-05-31T05:31:23.912Z,1017.81
2018-05-31T05:32:23.773Z,1017.78
2018-05-31T05:33:23.806Z,1017.79
2018-05-31T05:34:23.963Z,1017.81
2018-05-31T05:35:23.810Z,1017.87
2018-05-31T05:36:23.767Z,1017.86
2018-05-31T05:37:23.873Z,1017.87
2018-05-31T05:38:23.868Z,1017.91
2018-05-31T05:39:23.761Z,1017.92
2018-05-31T05:40:23.822Z,1017.88
2018-05-31T05:41:24.640Z,1017.90
2018-05-31T05:42:23.785Z,1017.91
2018-05-31T05:43:23.811Z,1017.89
2018-05-31T05:44:23.816Z,1017.89
2018-05-31T05:45:31.450Z,1017.92
2018-05-31T05:47:17.161Z,1017.91
2018-05-31T05:48:17.044Z,1017.94
2018-05-31T05:50:10.524Z,1017.87
2018-05-31T05:51:10.595Z,1017.92
2018-05-31T05:53:17.090Z,1017.91
2018-05-31T05:54:16.005Z,1017.91
2018-05-31T05:56:09.457Z,1017.95
2018-05-31T05:57:09.746Z,1017.92
2018-05-31T05:59:02.950Z,1017.89
2018-05-31T06:00:02.611Z,1017.92
2018-05-31T06:01:56.429Z,1017.91
2018-05-31T06:02:56.244Z,1017.96
2018-05-31T06:04:50.101Z,1017.94
2018-05-31T06:05:50.284Z,1017.92
2018-05-31T06:07:43.481Z,1017.96
2018-05-31T06:10:37.080Z,1017.95
2018-05-31T06:11:37.196Z,1017.93
2018-05-31T06:13:31.056Z,1017.99
2018-05-31T06:14:30.637Z,1017.95
2018-05-31T06:16:23.507Z,1018.01
2018-05-31T06:17:23.514Z,1017.98
2018-05-31T06:19:16.762Z,1017.98
2018-05-31T06:20:16.985Z,1018.03
2018-05-31T06:21:16.713Z,1018.05
2018-05-31T06:22:16.775Z,1018.00
2018-05-31T06:23:16.720Z,1018.01
2018-05-31T06:24:16.799Z,1017.98
2018-05-31T06:25:16.714Z,1018.03
2018-05-31T06:26:16.791Z,1018.00
2018-05-31T06:27:16.913Z,1018.00
2018-05-31T06:28:16.710Z,1018.00
2018-05-31T06:29:16.865Z,1018.02
2018-05-31T06:30:17.349Z,1018.02
2018-05-31T06:31:16.700Z,1018.09
2018-05-31T06:32:16.732Z,1018.02
2018-05-31T06:33:16.701Z,1018.02
2018-05-31T06:34:16.728Z,1018.08
2018-05-31T06:35:16.613Z,1018.03
2018-05-31T06:36:16.731Z,1018.07
2018-05-31T06:37:16.822Z,1018.10
2018-05-31T06:38:17.293Z,1018.09
2018-05-31T06:39:16.786Z,1018.05
2018-05-31T06:40:16.630Z,1018.02
2018-05-31T06:41:16.817Z,1018.02
2018-05-31T06:42:16.682Z,1018.08
2018-05-31T06:43:16.588Z,1018.04
2018-05-31T06:44:16.584Z,1018.03
2018-05-31T06:45:16.582Z,1018.06
2018-05-31T06:46:16.736Z,1018.06
2018-05-31T06:47:16.543Z,1018.02
2018-05-31T06:48:16.672Z,1018.04
2018-05-31T06:49:16.546Z,1018.07
2018-05-31T06:50:16.540Z,1018.08
2018-05-31T06:51:16.669Z,1018.09
2018-05-31T06:52:16.573Z,1018.09
2018-05-31T06:53:16.569Z,1018.06
2018-05-31T06:54:16.620Z,1018.09
2018-05-31T06:55:16.776Z,1018.08
2018-05-31T06:56:16.610Z,1018.03
2018-05-31T06:57:16.495Z,1018.11
2018-05-31T06:58:16.541Z,1018.14
2018-05-31T06:59:16.642Z,1018.14
2018-05-31T07:00:16.547Z,1018.14
2018-05-31T07:01:16.663Z,1018.17
2018-05-31T07:02:16.496Z,1018.18
2018-05-31T07:03:16.819Z,1018.13
2018-05-31T07:04:16.449Z,1018.15
2018-05-31T07:05:16.458Z,1018.14
2018-05-31T07:06:17.360Z,1018.15
2018-05-31T07:07:16.852Z,1018.17
2018-05-31T07:08:17.254Z,1018.19
2018-05-31T07:09:16.520Z,1018.13
2018-05-31T07:10:16.634Z,1018.15
2018-05-31T07:11:17.297Z,1018.22
2018-05-31T07:12:16.478Z,1018.21
2018-05-31T07:13:16.466Z,1018.22
2018-05-31T07:14:16.519Z,1018.22
2018-05-31T07:15:16.494Z,1018.25
2018-05-31T07:16:16.511Z,1018.20
2018-05-31T07:17:16.479Z,1018.23
2018-05-31T07:18:16.731Z,1018.26
2018-05-31T07:19:16.652Z,1018.22
2018-05-31T07:20:16.476Z,1018.28
2018-05-31T07:21:16.565Z,1018.32
2018-05-31T07:22:16.475Z,1018.28
2018-05-31T07:23:16.495Z,1018.26
2018-05-31T07:24:16.675Z,1018.30
2018-05-31T07:25:16.542Z,1018.25
2018-05-31T07:26:16.472Z,1018.28
2018-05-31T07:27:16.521Z,1018.31
2018-05-31T07:28:16.469Z,1018.32
2018-05-31T07:29:16.562Z,1018.32
2018-05-31T07:30:16.546Z,1018.26
2018-05-31T07:31:16.556Z,1018.30
2018-05-31T07:32:16.587Z,1018.24
2018-05-31T07:33:16.955Z,1018.27
2018-05-31T07:34:16.445Z,1018.25
2018-05-31T07:35:16.690Z,1018.20
2018-05-31T07:36:16.646Z,1018.25
2018-05-31T07:37:17.004Z,1018.28
2018-05-31T07:38:16.848Z,1018.29
2018-05-31T07:39:16.393Z,1018.29
2018-05-31T07:40:16.398Z,1018.29
2018-05-31T07:41:16.492Z,1018.28
2018-05-31T07:42:16.649Z,1018.29
2018-05-31T07:43:16.475Z,1018.27
2018-05-31T07:44:16.628Z,1018.25
2018-05-31T07:45:16.525Z,1018.29
2018-05-31T07:46:16.502Z,1018.26
2018-05-31T07:47:16.650Z,1018.31
2018-05-31T07:48:16.463Z,1018.30
2018-05-31T07:49:16.455Z,1018.32
2018-05-31T07:50:16.472Z,1018.33
2018-05-31T07:51:16.476Z,1018.32
2018-05-31T07:52:16.510Z,1018.30
2018-05-31T07:53:16.470Z,1018.31
2018-05-31T07:54:16.504Z,1018.36
2018-05-31T07:55:16.389Z,1018.31
2018-05-31T07:56:16.460Z,1018.37
2018-05-31T07:57:16.713Z,1018.39
2018-05-31T07:58:16.642Z,1018.34
2018-05-31T07:59:16.485Z,1018.33
2018-05-31T08:00:16.502Z,1018.36
2018-05-31T08:01:16.640Z,1018.38
2018-05-31T08:02:16.688Z,1018.40
2018-05-31T08:03:16.428Z,1018.40
2018-05-31T08:04:16.477Z,1018.37
2018-05-31T08:05:16.604Z,1018.39
2018-05-31T08:06:17.117Z,1018.37
2018-05-31T08:07:16.800Z,1018.39
2018-05-31T08:08:16.506Z,1018.46
2018-05-31T08:09:16.528Z,1018.42
2018-05-31T08:10:16.584Z,1018.44
2018-05-31T08:11:17.932Z,1018.44
2018-05-31T08:12:16.641Z,1018.45
2018-05-31T08:13:16.574Z,1018.44
2018-05-31T08:14:16.814Z,1018.48
2018-05-31T08:15:16.612Z,1018.53
2018-05-31T08:16:16.725Z,1018.51
2018-05-31T08:17:17.111Z,1018.51
2018-05-31T08:18:16.759Z,1018.55
2018-05-31T08:19:16.598Z,1018.56
2018-05-31T08:20:16.551Z,1018.58
2018-05-31T08:21:16.566Z,1018.54
2018-05-31T08:22:16.565Z,1018.59
2018-05-31T08:23:16.573Z,1018.56
2018-05-31T08:24:16.686Z,1018.58
2018-05-31T08:25:16.938Z,1018.54
2018-05-31T08:26:16.608Z,1018.62
2018-05-31T08:27:16.681Z,1018.56
2018-05-31T08:28:16.727Z,1018.57
2018-05-31T08:29:16.629Z,1018.57
2018-05-31T08:30:16.589Z,1018.57
2018-05-31T08:31:16.693Z,1018.60
2018-05-31T08:32:16.624Z,1018.58
2018-05-31T08:33:16.685Z,1018.59
2018-05-31T08:34:16.728Z,1018.59
2018-05-31T08:35:16.632Z,1018.63
2018-05-31T08:36:16.676Z,1018.58
2018-05-31T08:37:16.653Z,1018.56
2018-05-31T08:38:16.890Z,1018.59
2018-05-31T08:39:16.708Z,1018.66
2018-05-31T08:40:16.683Z,1018.61
2018-05-31T08:41:16.757Z,1018.56
2018-05-31T08:42:16.767Z,1018.61
2018-05-31T08:43:16.916Z,1018.62
2018-05-31T08:44:16.779Z,1018.59
2018-05-31T08:45:16.705Z,1018.61
2018-05-31T08:46:16.755Z,1018.58
2018-05-31T08:47:16.708Z,1018.57
2018-05-31T08:48:16.747Z,1018.55
2018-05-31T08:49:16.824Z,1018.57
2018-05-31T08:50:16.811Z,1018.58
2018-05-31T08:51:17.364Z,1018.59
2018-05-31T08:52:16.856Z,1018.58
2018-05-31T08:53:17.393Z,1018.59
2018-05-31T08:54:16.773Z,1018.57
2018-05-31T08:55:16.891Z,1018.58
2018-05-31T08:56:16.824Z,1018.64
2018-05-31T08:57:16.807Z,1018.62
2018-05-31T08:58:16.883Z,1018.62
2018-05-31T08:59:16.983Z,1018.60
2018-05-31T09:00:16.949Z,1018.59
2018-05-31T09:01:16.981Z,1018.60
2018-05-31T09:02:16.989Z,1018.63
2018-05-31T09:03:16.953Z,1018.64
2018-05-31T09:04:16.926Z,1018.61
2018-05-31T09:05:17.278Z,1018.58
2018-05-31T09:06:16.947Z,1018.53
2018-05-31T09:07:17.044Z,1018.57
2018-05-31T09:08:16.935Z,1018.58
2018-05-31T09:09:17.031Z,1018.55
2018-05-31T09:11:17.260Z,1018.58
2018-05-31T09:12:17.062Z,1018.57
2018-05-31T09:13:17.015Z,1018.56
2018-05-31T09:14:17.057Z,1018.48
2018-05-31T09:15:17.081Z,1018.49
2018-05-31T09:16:17.058Z,1018.50
2018-05-31T09:17:17.065Z,1018.53
2018-05-31T09:18:17.070Z,1018.57
2018-05-31T09:19:17.066Z,1018.51
2018-05-31T09:20:17.112Z,1018.45
2018-05-31T09:21:17.083Z,1018.46
2018-05-31T09:22:17.091Z,1018.44
2018-05-31T09:23:17.142Z,1018.43
2018-05-31T09:24:17.160Z,1018.45
2018-05-31T09:25:17.137Z,1018.39
2018-05-31T09:26:17.147Z,1018.43
2018-05-31T09:27:17.166Z,1018.42
2018-05-31T09:28:17.172Z,1018.38
2018-05-31T09:29:17.202Z,1018.38
2018-05-31T09:30:17.206Z,1018.40
2018-05-31T09:31:17.202Z,1018.42
2018-05-31T09:32:17.267Z,1018.41
2018-05-31T09:33:17.359Z,1018.40
2018-05-31T09:34:17.350Z,1018.42
2018-05-31T09:35:17.266Z,1018.43
2018-05-31T09:36:17.450Z,1018.36
2018-05-31T09:37:17.300Z,1018.40
2018-05-31T09:38:17.324Z,1018.36
2018-05-31T09:39:17.356Z,1018.39
2018-05-31T09:40:17.382Z,1018.39
2018-05-31T09:41:17.379Z,1018.39
2018-05-31T09:42:17.456Z,1018.41
2018-05-31T09:43:17.382Z,1018.45
2018-05-31T09:44:17.387Z,1018.45
2018-05-31T09:45:17.409Z,1018.47
2018-05-31T09:46:17.417Z,1018.43
2018-05-31T09:47:17.429Z,1018.43
2018-05-31T09:48:17.478Z,1018.37
2018-05-31T09:49:17.445Z,1018.36
2018-05-31T09:50:17.637Z,1018.37
2018-05-31T09:51:17.479Z,1018.41
2018-05-31T09:52:17.498Z,1018.42
2018-05-31T09:53:17.537Z,1018.41
2018-05-31T09:54:17.560Z,1018.43
2018-05-31T09:55:17.522Z,1018.42
2018-05-31T09:56:17.561Z,1018.40
2018-05-31T09:57:17.639Z,1018.41
2018-05-31T09:58:17.601Z,1018.44
2018-05-31T09:59:17.634Z,1018.34
2018-05-31T10:00:17.685Z,1018.39
2018-05-31T10:01:17.652Z,1018.44
2018-05-31T10:02:17.620Z,1018.43
2018-05-31T10:03:17.669Z,1018.40
2018-05-31T10:04:17.765Z,1018.44
2018-05-31T10:05:17.673Z,1018.42
2018-05-31T10:06:17.677Z,1018.41
2018-05-31T10:07:17.706Z,1018.37
2018-05-31T10:08:17.747Z,1018.35
2018-05-31T10:09:17.769Z,1018.34
2018-05-31T10:10:17.936Z,1018.36
2018-05-31T10:11:17.826Z,1018.36
2018-05-31T10:12:17.899Z,1018.34
2018-05-31T10:13:17.867Z,1018.33
2018-05-31T10:14:17.824Z,1018.30
2018-05-31T10:15:17.904Z,1018.30
2018-05-31T10:16:17.850Z,1018.30
2018-05-31T10:17:17.868Z,1018.28
2018-05-31T10:18:17.939Z,1018.27
2018-05-31T10:19:17.904Z,1018.20
2018-05-31T10:20:17.889Z,1018.17
2018-05-31T10:21:18.114Z,1018.14
2018-05-31T10:22:19.931Z,1018.17
2018-05-31T10:23:19.400Z,1018.10
2018-05-31T10:25:59.572Z,1018.11
2018-05-31T10:27:06.944Z,1018.15
2018-05-31T10:28:52.198Z,1018.15
2018-05-31T10:29:52.421Z,1018.12
2018-05-31T10:49:16.097Z,1018.01
2018-05-31T10:50:16.538Z,1018.04
2018-05-31T10:52:11.816Z,1018.11
2018-05-31T10:54:49.655Z,1018.08
2018-05-31T10:59:57.372Z,1017.97
2018-05-31T11:00:56.475Z,1017.95
2018-05-31T11:01:56.510Z,1017.98
2018-05-31T11:02:56.541Z,1017.93
2018-05-31T11:03:56.512Z,1017.97
2018-05-31T11:04:56.513Z,1017.92
2018-05-31T11:05:56.528Z,1017.89
2018-05-31T11:06:56.562Z,1017.91
2018-05-31T11:07:56.607Z,1017.82
2018-05-31T11:08:56.582Z,1017.87
2018-05-31T11:09:56.761Z,1017.87
2018-05-31T11:10:56.662Z,1017.90
2018-05-31T11:11:56.625Z,1017.92
2018-05-31T11:12:56.658Z,1017.89
2018-05-31T11:13:56.687Z,1017.84
2018-05-31T11:14:56.763Z,1017.85
2018-05-31T11:15:56.695Z,1017.87
2018-05-31T11:16:56.815Z,1017.84
2018-05-31T11:17:56.815Z,1017.81
2018-05-31T11:18:56.749Z,1017.82
2018-05-31T11:19:56.785Z,1017.80
2018-05-31T11:20:56.880Z,1017.76
2018-05-31T11:21:56.853Z,1017.82
2018-05-31T11:22:56.822Z,1017.80
2018-05-31T11:23:56.835Z,1017.84
2018-05-31T11:25:04.568Z,1017.85
2018-05-31T11:26:50.251Z,1017.83
2018-05-31T11:27:50.241Z,1017.80
2018-05-31T11:29:43.248Z,1017.73
2018-05-31T11:30:43.214Z,1017.78
2018-05-31T11:32:36.166Z,1017.69
2018-05-31T11:33:36.145Z,1017.66
2018-05-31T11:35:29.049Z,1017.58
2018-05-31T11:36:29.071Z,1017.56
2018-05-31T11:38:22.563Z,1017.54
2018-05-31T11:39:22.529Z,1017.49
2018-05-31T11:41:15.430Z,1017.52
2018-05-31T11:42:15.551Z,1017.56
2018-05-31T11:44:08.369Z,1017.53
2018-05-31T11:45:08.372Z,1017.52
2018-05-31T11:47:01.768Z,1017.57
2018-05-31T11:48:01.852Z,1017.53
2018-05-31T11:49:55.225Z,1017.51
2018-05-31T11:50:55.204Z,1017.50
2018-05-31T11:52:48.072Z,1017.47
2018-05-31T11:53:48.143Z,1017.44
2018-05-31T11:55:41.529Z,1017.45
2018-05-31T11:56:41.513Z,1017.46
2018-05-31T11:58:34.902Z,1017.44
2018-05-31T11:59:34.924Z,1017.41
2018-05-31T12:00:34.976Z,1017.40
2018-05-31T12:01:34.991Z,1017.36
2018-05-31T12:02:34.953Z,1017.39
2018-05-31T12:03:35.041Z,1017.37
2018-05-31T12:04:35.024Z,1017.42
2018-05-31T12:05:35.020Z,1017.34
2018-05-31T12:06:35.020Z,1017.34
2018-05-31T12:07:35.087Z,1017.38
2018-05-31T12:08:35.076Z,1017.41
2018-05-31T12:09:35.387Z,1017.47
2018-05-31T12:10:35.098Z,1017.40
2018-05-31T12:11:35.170Z,1017.41
2018-05-31T12:12:35.135Z,1017.37
2018-05-31T12:13:35.154Z,1017.40
2018-05-31T12:14:35.173Z,1017.37
2018-05-31T12:15:35.209Z,1017.34
2018-05-31T12:16:35.214Z,1017.45
2018-05-31T12:17:35.265Z,1017.44
2018-05-31T12:18:35.215Z,1017.32
2018-05-31T12:19:35.239Z,1017.31
2018-05-31T12:20:35.247Z,1017.43
2018-05-31T12:21:35.259Z,1017.42
2018-05-31T12:22:35.281Z,1017.29
2018-05-31T12:23:35.313Z,1017.36
2018-05-31T12:24:35.437Z,1017.45
2018-05-31T12:25:35.357Z,1017.31
2018-05-31T12:26:35.393Z,1017.33
2018-05-31T12:27:35.386Z,1017.36
2018-05-31T12:28:36.057Z,1017.35
2018-05-31T12:29:35.408Z,1017.38
2018-05-31T12:30:35.404Z,1017.32
2018-05-31T12:31:35.363Z,1017.27
2018-05-31T12:32:35.423Z,1017.28
2018-05-31T12:33:35.431Z,1017.38
2018-05-31T12:34:35.482Z,1017.33
2018-05-31T12:35:35.423Z,1017.24
2018-05-31T12:36:35.423Z,1017.25
2018-05-31T12:37:35.613Z,1017.21
2018-05-31T12:38:36.079Z,1017.32
2018-05-31T12:39:35.482Z,1017.20
2018-05-31T12:40:35.479Z,1017.33
2018-05-31T12:41:35.510Z,1017.29
2018-05-31T12:42:35.552Z,1017.34
2018-05-31T12:43:35.540Z,1017.30
2018-05-31T12:44:35.566Z,1017.35
2018-05-31T12:45:35.571Z,1017.34
2018-05-31T12:46:35.618Z,1017.30
2018-05-31T12:47:35.626Z,1017.26
2018-05-31T12:48:35.599Z,1017.25
2018-05-31T12:49:35.562Z,1017.23
2018-05-31T12:50:35.766Z,1017.25
2018-05-31T12:51:35.621Z,1017.18
2018-05-31T12:52:35.701Z,1017.19
2018-05-31T12:53:35.666Z,1017.26
2018-05-31T12:54:35.713Z,1017.19
2018-05-31T12:55:35.673Z,1017.23
2018-05-31T12:56:35.786Z,1017.18
2018-05-31T12:57:35.709Z,1017.16
2018-05-31T12:58:35.702Z,1017.23
2018-05-31T12:59:36.624Z,1017.20